createdAt,value
2023-03-21T00:00:46.167Z,6.32
2023-03-21T00:01:46.135Z,6.35
2023-03-21T00:02:46.154Z,6.32
2023-03-21T00:03:46.175Z,6.36
2023-03-21T00:04:52.343Z,6.35
2023-03-21T00:05:46.123Z,6.35
2023-03-21T00:06:46.111Z,6.36
2023-03-21T00:07:46.088Z,6.38
2023-03-21T00:08:46.068Z,6.39
2023-03-21T00:09:46.058Z,6.40
2023-03-21T00:10:46.064Z,6.38
2023-03-21T00:11:46.079Z,6.39
2023-03-21T00:12:46.039Z,6.40
2023-03-21T00:13:46.019Z,6.39
2023-03-21T00:14:46.008Z,6.42
2023-03-21T00:15:54.161Z,6.42
2023-03-21T00:16:46.171Z,6.42
2023-03-21T00:17:45.980Z,6.43
2023-03-21T00:18:45.965Z,6.43
2023-03-21T00:19:45.955Z,6.43
2023-03-21T00:20:46.144Z,6.42
2023-03-21T00:22:03.690Z,6.42
2023-03-21T00:22:45.937Z,6.43
2023-03-21T00:23:45.921Z,6.43
2023-03-21T00:24:45.907Z,6.42
2023-03-21T00:25:45.903Z,6.45
2023-03-21T00:26:46.153Z,6.43
2023-03-21T00:28:01.426Z,6.43
2023-03-21T00:28:45.880Z,6.43
2023-03-21T00:29:45.864Z,6.43
2023-03-21T00:30:45.846Z,6.45
2023-03-21T00:31:45.838Z,6.46
2023-03-21T00:32:55.520Z,6.48
2023-03-21T00:33:45.824Z,6.46
2023-03-21T00:35:00.224Z,6.48
2023-03-21T00:36:05.287Z,6.50
2023-03-21T00:36:45.819Z,6.50
2023-03-21T00:37:45.788Z,6.50
2023-03-21T00:38:45.771Z,6.50
2023-03-21T00:39:45.785Z,6.50
2023-03-21T00:40:49.136Z,6.53
2023-03-21T00:41:45.841Z,6.51
2023-03-21T00:42:45.743Z,6.51
2023-03-21T00:43:45.758Z,6.53
2023-03-21T00:44:45.713Z,6.51
2023-03-21T00:45:45.695Z,6.51
2023-03-21T00:46:57.272Z,6.54
2023-03-21T00:47:45.751Z,6.53
2023-03-21T00:48:45.703Z,6.54
2023-03-21T00:49:45.680Z,6.54
2023-03-21T00:50:45.645Z,6.55
2023-03-21T00:51:45.642Z,6.55
2023-03-21T00:52:45.631Z,6.55
2023-03-21T00:53:45.649Z,6.55
2023-03-21T00:54:45.606Z,6.54
2023-03-21T00:55:45.615Z,6.54
2023-03-21T00:56:45.588Z,6.55
2023-03-21T00:57:50.151Z,6.55
2023-03-21T00:58:45.575Z,6.57
2023-03-21T00:59:45.572Z,6.54
2023-03-21T01:00:45.616Z,6.55
2023-03-21T01:01:45.613Z,6.54
2023-03-21T01:02:47.158Z,6.53
2023-03-21T01:03:45.522Z,6.53
2023-03-21T01:04:45.521Z,6.53
2023-03-21T01:05:45.498Z,6.51
2023-03-21T01:06:45.496Z,6.50
2023-03-21T01:07:45.475Z,6.48
2023-03-21T01:08:53.493Z,6.48
2023-03-21T01:09:45.466Z,6.48
2023-03-21T01:10:45.462Z,6.48
2023-03-21T01:11:45.444Z,6.46
2023-03-21T01:12:45.427Z,6.46
2023-03-21T01:13:54.818Z,6.46
2023-03-21T01:14:45.443Z,6.45
2023-03-21T01:15:45.425Z,6.43
2023-03-21T01:16:45.400Z,6.45
2023-03-21T01:17:45.394Z,6.45
2023-03-21T01:18:45.401Z,6.43
2023-03-21T01:19:51.973Z,6.43
2023-03-21T01:20:45.363Z,6.43
2023-03-21T01:21:45.350Z,6.43
2023-03-21T01:22:45.333Z,6.42
2023-03-21T01:23:45.325Z,6.40
2023-03-21T01:24:53.814Z,6.42
2023-03-21T01:25:45.299Z,6.39
2023-03-21T01:26:45.293Z,6.40
2023-03-21T01:27:45.304Z,6.40
2023-03-21T01:28:45.288Z,6.39
2023-03-21T01:29:45.257Z,6.40
2023-03-21T01:30:45.266Z,6.39
2023-03-21T01:31:45.291Z,6.39
2023-03-21T01:32:45.234Z,6.39
2023-03-21T01:33:45.225Z,6.40
2023-03-21T01:34:45.213Z,6.39
2023-03-21T01:35:53.344Z,6.38
2023-03-21T01:36:45.291Z,6.40
2023-03-21T01:37:45.188Z,6.39
2023-03-21T01:38:45.171Z,6.38
2023-03-21T01:39:45.177Z,6.39
2023-03-21T01:40:45.172Z,6.38
2023-03-21T01:41:45.163Z,6.39
2023-03-21T01:42:45.134Z,6.40
2023-03-21T01:43:45.124Z,6.39
2023-03-21T01:44:45.108Z,6.40
2023-03-21T01:45:45.164Z,6.39
2023-03-21T01:46:53.919Z,6.40
2023-03-21T01:47:45.112Z,6.38
2023-03-21T01:48:45.072Z,6.38
2023-03-21T01:49:45.097Z,6.40
2023-03-21T01:50:45.061Z,6.39
2023-03-21T01:51:45.056Z,6.40
2023-03-21T01:52:45.053Z,6.39
2023-03-21T01:53:45.024Z,6.40
2023-03-21T01:54:45.027Z,6.39
2023-03-21T01:55:45.004Z,6.39
2023-03-21T01:56:45.007Z,6.40
2023-03-21T01:57:55.173Z,6.40
2023-03-21T01:58:44.981Z,6.40
2023-03-21T01:59:44.964Z,6.40
2023-03-21T02:00:45.050Z,6.40
2023-03-21T02:01:44.951Z,6.40
2023-03-21T02:02:44.964Z,6.40
2023-03-21T02:03:45.001Z,6.42
2023-03-21T02:04:44.920Z,6.40
2023-03-21T02:05:44.928Z,6.42
2023-03-21T02:06:44.905Z,6.40
2023-03-21T02:07:44.892Z,6.42
2023-03-21T02:08:44.898Z,6.42
2023-03-21T02:09:44.865Z,6.42
2023-03-21T02:10:44.860Z,6.42
2023-03-21T02:11:44.844Z,6.42
2023-03-21T02:12:44.825Z,6.40
2023-03-21T02:13:44.863Z,6.42
2023-03-21T02:14:44.809Z,6.42
2023-03-21T02:15:44.807Z,6.43
2023-03-21T02:16:44.846Z,6.42
2023-03-21T02:17:44.783Z,6.42
2023-03-21T02:18:44.777Z,6.43
2023-03-21T02:19:52.931Z,6.42
2023-03-21T02:20:44.759Z,6.42
2023-03-21T02:21:44.751Z,6.42
2023-03-21T02:22:44.736Z,6.43
2023-03-21T02:23:44.734Z,6.45
2023-03-21T02:24:48.884Z,6.42
2023-03-21T02:25:44.713Z,6.42
2023-03-21T02:26:46.473Z,6.43
2023-03-21T02:27:44.686Z,6.42
2023-03-21T02:28:44.700Z,6.42
2023-03-21T02:29:44.674Z,6.43
2023-03-21T02:30:51.643Z,6.43
2023-03-21T02:31:44.768Z,6.43
2023-03-21T02:32:44.672Z,6.43
2023-03-21T02:33:44.643Z,6.43
2023-03-21T02:34:44.618Z,6.42
2023-03-21T02:35:54.137Z,6.43
2023-03-21T02:36:44.654Z,6.43
2023-03-21T02:37:46.710Z,6.42
2023-03-21T02:38:44.628Z,6.42
2023-03-21T02:39:44.585Z,6.43
2023-03-21T02:40:44.556Z,6.42
2023-03-21T02:41:44.586Z,6.45
2023-03-21T02:42:48.882Z,6.43
2023-03-21T02:43:44.534Z,6.45
2023-03-21T02:44:44.521Z,6.43
2023-03-21T02:45:44.592Z,6.43
2023-03-21T02:46:49.185Z,6.43
2023-03-21T02:47:44.592Z,6.43
2023-03-21T02:48:50.870Z,6.43
2023-03-21T02:49:44.478Z,6.45
2023-03-21T02:50:44.475Z,6.43
2023-03-21T02:51:44.459Z,6.43
2023-03-21T02:52:44.470Z,6.45
2023-03-21T02:53:44.453Z,6.45
2023-03-21T02:54:48.323Z,6.43
2023-03-21T02:55:44.412Z,6.43
2023-03-21T02:56:44.416Z,6.43
2023-03-21T02:57:44.480Z,6.45
2023-03-21T02:58:44.386Z,6.43
2023-03-21T02:59:53.557Z,6.45
2023-03-21T03:00:44.364Z,6.45
2023-03-21T03:01:44.371Z,6.45
2023-03-21T03:02:44.356Z,6.45
2023-03-21T03:03:44.355Z,6.45
2023-03-21T03:04:44.395Z,6.45
2023-03-21T03:05:44.310Z,6.43
2023-03-21T03:06:44.370Z,6.46
2023-03-21T03:07:44.300Z,6.45
2023-03-21T03:08:56.270Z,6.45
2023-03-21T03:09:44.293Z,6.45
2023-03-21T03:10:44.259Z,6.45
2023-03-21T03:11:44.283Z,6.45
2023-03-21T03:12:44.263Z,6.46
2023-03-21T03:13:44.227Z,6.45
2023-03-21T03:15:00.233Z,6.46
2023-03-21T03:15:44.260Z,6.46
2023-03-21T03:16:44.205Z,6.46
2023-03-21T03:17:44.226Z,6.46
2023-03-21T03:18:44.193Z,6.48
2023-03-21T03:19:49.969Z,6.46
2023-03-21T03:20:44.204Z,6.46
2023-03-21T03:21:44.179Z,6.45
2023-03-21T03:22:44.166Z,6.45
2023-03-21T03:23:44.154Z,6.46
2023-03-21T03:24:44.126Z,6.48
2023-03-21T03:25:44.139Z,6.46
2023-03-21T03:26:44.105Z,6.46
2023-03-21T03:27:44.093Z,6.48
2023-03-21T03:28:44.101Z,6.48
2023-03-21T03:29:44.081Z,6.48
2023-03-21T03:30:54.310Z,6.48
2023-03-21T03:31:44.114Z,6.46
2023-03-21T03:32:44.074Z,6.48
2023-03-21T03:33:44.038Z,6.48
2023-03-21T03:34:44.025Z,6.48
2023-03-21T03:35:46.408Z,6.48
2023-03-21T03:36:44.054Z,6.50
2023-03-21T03:37:43.993Z,6.48
2023-03-21T03:38:43.982Z,6.50
2023-03-21T03:39:43.974Z,6.50
2023-03-21T03:40:43.961Z,6.50
2023-03-21T03:42:07.854Z,6.48
2023-03-21T03:42:43.968Z,6.50
2023-03-21T03:43:43.927Z,6.50
2023-03-21T03:44:43.924Z,6.48
2023-03-21T03:45:43.927Z,6.50
2023-03-21T03:46:43.920Z,6.50
2023-03-21T03:47:56.012Z,6.50
2023-03-21T03:48:43.886Z,6.50
2023-03-21T03:49:43.895Z,6.50
2023-03-21T03:50:43.856Z,6.50
2023-03-21T03:51:43.863Z,6.50
2023-03-21T03:52:55.354Z,6.50
2023-03-21T03:53:43.863Z,6.51
2023-03-21T03:54:43.819Z,6.51
2023-03-21T03:55:43.838Z,6.51
2023-03-21T03:56:43.796Z,6.51
2023-03-21T03:57:43.791Z,6.51
2023-03-21T03:58:45.906Z,6.51
2023-03-21T03:59:43.794Z,6.51
2023-03-21T04:00:43.758Z,6.51
2023-03-21T04:01:43.775Z,6.50
2023-03-21T04:02:43.791Z,6.51
2023-03-21T04:03:49.907Z,6.53
2023-03-21T04:04:43.884Z,6.53
2023-03-21T04:05:43.729Z,6.53
2023-03-21T04:06:43.704Z,6.53
2023-03-21T04:07:43.689Z,6.54
2023-03-21T04:08:43.698Z,6.53
2023-03-21T04:09:45.214Z,6.54
2023-03-21T04:10:43.698Z,6.54
2023-03-21T04:11:43.656Z,6.55
2023-03-21T04:12:43.642Z,6.55
2023-03-21T04:13:43.642Z,6.57
2023-03-21T04:14:46.135Z,6.55
2023-03-21T04:15:43.616Z,6.55
2023-03-21T04:16:43.644Z,6.55
2023-03-21T04:17:43.600Z,6.57
2023-03-21T04:18:43.591Z,6.55
2023-03-21T04:19:43.625Z,6.55
2023-03-21T04:20:43.678Z,6.55
2023-03-21T04:21:43.560Z,6.57
2023-03-21T04:22:43.607Z,6.57
2023-03-21T04:23:43.541Z,6.57
2023-03-21T04:24:43.581Z,6.58
2023-03-21T04:25:55.524Z,6.58
2023-03-21T04:26:43.534Z,6.60
2023-03-21T04:27:43.517Z,6.60
2023-03-21T04:28:43.488Z,6.60
2023-03-21T04:29:43.491Z,6.60
2023-03-21T04:30:55.163Z,6.63
2023-03-21T04:31:43.545Z,6.60
2023-03-21T04:32:43.468Z,6.61
2023-03-21T04:33:43.467Z,6.60
2023-03-21T04:34:43.427Z,6.61
2023-03-21T04:35:43.453Z,6.61
2023-03-21T04:36:43.411Z,6.60
2023-03-21T04:37:43.399Z,6.61
2023-03-21T04:38:43.405Z,6.60
2023-03-21T04:39:43.390Z,6.61
2023-03-21T04:40:43.369Z,6.63
2023-03-21T04:41:43.399Z,6.61
2023-03-21T04:42:43.351Z,6.63
2023-03-21T04:43:43.358Z,6.61
2023-03-21T04:44:43.337Z,6.63
2023-03-21T04:45:43.412Z,6.63
2023-03-21T04:46:43.338Z,6.60
2023-03-21T04:47:43.364Z,6.61
2023-03-21T04:48:43.284Z,6.61
2023-03-21T04:49:43.280Z,6.61
2023-03-21T04:50:43.280Z,6.61
2023-03-21T04:51:43.255Z,6.61
2023-03-21T04:52:43.272Z,6.60
2023-03-21T04:53:43.252Z,6.60
2023-03-21T04:54:43.224Z,6.61
2023-03-21T04:55:43.217Z,6.61
2023-03-21T04:56:43.217Z,6.61
2023-03-21T04:57:43.235Z,6.63
2023-03-21T04:58:43.281Z,6.61
2023-03-21T04:59:43.120Z,6.60
2023-03-21T05:00:43.213Z,6.60
2023-03-21T05:01:43.155Z,6.58
2023-03-21T05:02:43.105Z,6.60
2023-03-21T05:03:43.115Z,6.60
2023-03-21T05:04:43.072Z,6.61
2023-03-21T05:05:43.115Z,6.63
2023-03-21T05:06:43.106Z,6.63
2023-03-21T05:07:43.119Z,6.63
2023-03-21T05:08:43.090Z,6.63
2023-03-21T05:09:43.036Z,6.61
2023-03-21T05:10:43.076Z,6.63
2023-03-21T05:11:43.067Z,6.61
2023-03-21T05:12:43.054Z,6.63
2023-03-21T05:13:42.975Z,6.63
2023-03-21T05:14:42.973Z,6.63
2023-03-21T05:15:42.978Z,6.63
2023-03-21T05:16:43.012Z,6.64
2023-03-21T05:17:42.982Z,6.63
2023-03-21T05:18:42.928Z,6.65
2023-03-21T05:19:42.912Z,6.64
2023-03-21T05:20:42.905Z,6.65
2023-03-21T05:21:42.903Z,6.64
2023-03-21T05:22:42.910Z,6.64
2023-03-21T05:23:42.886Z,6.65
2023-03-21T05:24:42.871Z,6.68
2023-03-21T05:25:42.852Z,6.64
2023-03-21T05:26:42.870Z,6.65
2023-03-21T05:27:42.838Z,6.65
2023-03-21T05:28:42.828Z,6.65
2023-03-21T05:29:42.814Z,6.65
2023-03-21T05:30:42.898Z,6.65
2023-03-21T05:31:42.799Z,6.65
2023-03-21T05:32:42.801Z,6.68
2023-03-21T05:33:42.811Z,6.65
2023-03-21T05:34:42.778Z,6.65
2023-03-21T05:35:42.808Z,6.65
2023-03-21T05:36:42.783Z,6.68
2023-03-21T05:37:42.754Z,6.68
2023-03-21T05:38:42.776Z,6.69
2023-03-21T05:39:42.751Z,6.68
2023-03-21T05:40:42.715Z,6.68
2023-03-21T05:41:42.697Z,6.68
2023-03-21T05:42:42.694Z,6.68
2023-03-21T05:43:42.689Z,6.69
2023-03-21T05:44:42.669Z,6.69
2023-03-21T05:45:42.649Z,6.71
2023-03-21T05:46:42.647Z,6.71
2023-03-21T05:47:42.696Z,6.69
2023-03-21T05:48:42.671Z,6.71
2023-03-21T05:49:42.630Z,6.72
2023-03-21T05:50:42.609Z,6.72
2023-03-21T05:51:42.604Z,6.73
2023-03-21T05:52:42.590Z,6.73
2023-03-21T05:53:42.585Z,6.73
2023-03-21T05:54:42.598Z,6.73
2023-03-21T05:55:42.559Z,6.75
2023-03-21T05:56:42.563Z,6.75
2023-03-21T05:57:42.551Z,6.75
2023-03-21T05:58:42.533Z,6.75
2023-03-21T05:59:42.523Z,6.75
2023-03-21T06:00:42.528Z,6.73
2023-03-21T06:01:42.503Z,6.75
2023-03-21T06:02:42.490Z,6.75
2023-03-21T06:03:42.502Z,6.75
2023-03-21T06:04:42.469Z,6.75
2023-03-21T06:05:42.484Z,6.76
2023-03-21T06:06:42.456Z,6.76
2023-03-21T06:07:42.442Z,6.78
2023-03-21T06:08:42.439Z,6.78
2023-03-21T06:09:42.489Z,6.79
2023-03-21T06:10:42.408Z,6.78
2023-03-21T06:11:42.413Z,6.76
2023-03-21T06:12:42.400Z,6.78
2023-03-21T06:13:42.386Z,6.81
2023-03-21T06:14:42.375Z,6.81
2023-03-21T06:15:42.468Z,6.81
2023-03-21T06:16:42.372Z,6.81
2023-03-21T06:17:42.345Z,6.82
2023-03-21T06:18:42.332Z,6.82
2023-03-21T06:19:42.349Z,6.82
2023-03-21T06:20:42.314Z,6.86
2023-03-21T06:21:42.349Z,6.83
2023-03-21T06:22:42.304Z,6.83
2023-03-21T06:23:42.296Z,6.83
2023-03-21T06:24:42.272Z,6.86
2023-03-21T06:25:42.270Z,6.83
2023-03-21T06:26:42.248Z,6.83
2023-03-21T06:27:42.257Z,6.86
2023-03-21T06:28:42.234Z,6.87
2023-03-21T06:29:42.225Z,6.87
2023-03-21T06:30:42.240Z,6.87
2023-03-21T06:31:42.228Z,6.89
2023-03-21T06:32:42.218Z,6.87
2023-03-21T06:33:42.183Z,6.87
2023-03-21T06:34:42.191Z,6.87
2023-03-21T06:35:42.273Z,6.89
2023-03-21T06:36:42.144Z,6.91
2023-03-21T06:37:42.139Z,6.90
2023-03-21T06:38:42.146Z,6.93
2023-03-21T06:39:42.122Z,6.91
2023-03-21T06:40:42.742Z,6.93
2023-03-21T06:41:42.095Z,6.94
2023-03-21T06:42:42.246Z,6.97
2023-03-21T06:43:42.072Z,6.97
2023-03-21T06:44:42.091Z,6.97
2023-03-21T06:45:42.147Z,6.99
2023-03-21T06:46:42.341Z,7.00
2023-03-21T06:47:42.167Z,6.99
2023-03-21T06:48:42.025Z,7.00
2023-03-21T06:49:42.011Z,7.00
2023-03-21T06:50:42.132Z,7.01
2023-03-21T06:51:42.042Z,7.04
2023-03-21T06:52:42.203Z,7.04
2023-03-21T06:53:41.971Z,7.05
2023-03-21T06:54:42.102Z,7.08
2023-03-21T06:55:42.034Z,7.05
2023-03-21T06:56:42.140Z,7.07
2023-03-21T06:57:42.020Z,7.08
2023-03-21T06:58:42.147Z,7.08
2023-03-21T06:59:42.110Z,7.08
2023-03-21T07:00:42.076Z,7.08
2023-03-21T07:01:42.012Z,7.11
2023-03-21T07:02:42.055Z,7.11
2023-03-21T07:03:41.955Z,7.12
2023-03-21T07:04:42.163Z,7.12
2023-03-21T07:05:41.979Z,7.14
2023-03-21T07:06:42.060Z,7.14
2023-03-21T07:07:41.827Z,7.15
2023-03-21T07:08:42.084Z,7.15
2023-03-21T07:09:41.787Z,7.15
2023-03-21T07:10:43.781Z,7.15
2023-03-21T07:11:41.821Z,7.15
2023-03-21T07:12:41.779Z,7.18
2023-03-21T07:13:41.743Z,7.16
2023-03-21T07:14:41.759Z,7.19
2023-03-21T07:15:41.757Z,7.18
2023-03-21T07:16:42.232Z,7.16
2023-03-21T07:17:41.737Z,7.19
2023-03-21T07:18:41.699Z,7.21
2023-03-21T07:19:44.708Z,7.19
2023-03-21T07:20:41.904Z,7.21
2023-03-21T07:21:41.825Z,7.23
2023-03-21T07:22:41.665Z,7.21
2023-03-21T07:23:41.656Z,7.23
2023-03-21T07:24:41.825Z,7.26
2023-03-21T07:25:41.962Z,7.26
2023-03-21T07:26:41.631Z,7.27
2023-03-21T07:27:41.890Z,7.27
2023-03-21T07:28:41.601Z,7.29
2023-03-21T07:29:41.580Z,7.29
2023-03-21T07:30:41.577Z,7.30
2023-03-21T07:31:41.636Z,7.32
2023-03-21T07:32:41.552Z,7.32
2023-03-21T07:33:41.568Z,7.32
2023-03-21T07:34:41.549Z,7.33
2023-03-21T07:35:41.877Z,7.34
2023-03-21T07:36:41.616Z,7.33
2023-03-21T07:37:41.498Z,7.34
2023-03-21T07:38:41.474Z,7.34
2023-03-21T07:39:41.505Z,7.36
2023-03-21T07:40:41.644Z,7.36
2023-03-21T07:41:41.475Z,7.34
2023-03-21T07:42:41.534Z,7.37
2023-03-21T07:43:41.431Z,7.37
2023-03-21T07:44:41.979Z,7.37
2023-03-21T07:45:41.763Z,7.36
2023-03-21T07:46:41.392Z,7.41
2023-03-21T07:47:41.442Z,7.39
2023-03-21T07:48:41.368Z,7.39
2023-03-21T07:49:41.398Z,7.39
2023-03-21T07:50:41.393Z,7.42
2023-03-21T07:51:41.329Z,7.45
2023-03-21T07:52:41.326Z,7.44
2023-03-21T07:53:41.349Z,7.45
2023-03-21T07:54:41.344Z,7.48
2023-03-21T07:55:41.351Z,7.48
2023-03-21T07:56:41.349Z,7.50
2023-03-21T07:57:41.378Z,7.51
2023-03-21T07:58:42.080Z,7.51
2023-03-21T07:59:42.260Z,7.52
2023-03-21T08:00:41.316Z,7.51
2023-03-21T08:01:41.353Z,7.55
2023-03-21T08:02:43.568Z,7.57
2023-03-21T08:03:41.265Z,7.58
2023-03-21T08:04:41.290Z,7.58
2023-03-21T08:05:41.717Z,7.60
2023-03-21T08:06:41.184Z,7.66
2023-03-21T08:07:41.175Z,7.69
2023-03-21T08:08:41.160Z,7.70
2023-03-21T08:09:41.155Z,7.69
2023-03-21T08:10:41.117Z,7.71
2023-03-21T08:11:41.403Z,7.73
2023-03-21T08:12:41.130Z,7.74
2023-03-21T08:13:41.154Z,7.81
2023-03-21T08:14:41.080Z,7.84
2023-03-21T08:15:41.125Z,7.85
2023-03-21T08:16:41.179Z,7.85
2023-03-21T08:17:41.966Z,7.86
2023-03-21T08:18:41.052Z,7.89
2023-03-21T08:19:41.034Z,7.89
2023-03-21T08:20:41.137Z,7.91
2023-03-21T08:21:41.017Z,7.91
2023-03-21T08:22:40.988Z,7.95
2023-03-21T08:23:41.014Z,7.94
2023-03-21T08:24:40.985Z,7.95
2023-03-21T08:25:40.951Z,7.95
2023-03-21T08:26:40.953Z,7.96
2023-03-21T08:27:40.933Z,7.96
2023-03-21T08:28:40.954Z,7.99
2023-03-21T08:29:40.934Z,8.00
2023-03-21T08:30:40.992Z,8.00
2023-03-21T08:31:40.948Z,8.00
2023-03-21T08:32:40.876Z,8.03
2023-03-21T08:33:40.900Z,8.06
2023-03-21T08:34:40.851Z,8.07
2023-03-21T08:35:41.398Z,8.07
2023-03-21T08:36:40.864Z,8.07
2023-03-21T08:37:40.839Z,8.07
2023-03-21T08:38:40.818Z,8.07
2023-03-21T08:39:40.848Z,8.06
2023-03-21T08:40:40.809Z,8.03
2023-03-21T08:41:41.111Z,8.03
2023-03-21T08:42:40.771Z,8.02
2023-03-21T08:43:40.756Z,8.03
2023-03-21T08:44:40.750Z,8.02
2023-03-21T08:45:40.737Z,8.02
2023-03-21T08:46:40.799Z,8.02
2023-03-21T08:47:40.866Z,8.02
2023-03-21T08:48:40.700Z,8.00
2023-03-21T08:49:40.690Z,8.02
2023-03-21T08:50:40.703Z,8.00
2023-03-21T08:51:40.686Z,7.99
2023-03-21T08:52:40.665Z,7.99
2023-03-21T08:53:41.112Z,8.00
2023-03-21T08:54:40.641Z,7.99
2023-03-21T08:55:40.628Z,8.02
2023-03-21T08:56:40.618Z,8.02
2023-03-21T08:57:40.620Z,8.02
2023-03-21T08:58:40.598Z,8.00
2023-03-21T08:59:40.615Z,8.02
2023-03-21T09:00:40.576Z,8.00
2023-03-21T09:01:40.595Z,8.00
2023-03-21T09:02:40.556Z,8.02
2023-03-21T09:03:40.552Z,8.03
2023-03-21T09:04:40.626Z,8.03
2023-03-21T09:05:40.546Z,8.00
2023-03-21T09:06:41.125Z,8.02
2023-03-21T09:07:40.519Z,8.02
2023-03-21T09:08:40.660Z,8.02
2023-03-21T09:09:40.477Z,8.02
2023-03-21T09:10:40.485Z,8.02
2023-03-21T09:11:40.684Z,8.02
2023-03-21T09:12:40.442Z,8.03
2023-03-21T09:13:40.442Z,8.03
2023-03-21T09:14:40.417Z,8.02
2023-03-21T09:15:40.871Z,8.03
2023-03-21T09:16:40.430Z,8.00
2023-03-21T09:17:40.380Z,8.03
2023-03-21T09:18:40.371Z,8.02
2023-03-21T09:19:40.397Z,8.00
2023-03-21T09:20:40.360Z,7.99
2023-03-21T09:21:40.349Z,8.00
2023-03-21T09:22:42.601Z,8.00
2023-03-21T09:23:40.327Z,7.99
2023-03-21T09:24:40.330Z,7.96
2023-03-21T09:25:40.971Z,7.99
2023-03-21T09:26:40.288Z,7.99
2023-03-21T09:27:41.108Z,7.99
2023-03-21T09:28:40.312Z,8.00
2023-03-21T09:29:40.300Z,7.99
2023-03-21T09:30:41.030Z,7.99
2023-03-21T09:31:40.379Z,7.99
2023-03-21T09:32:40.237Z,7.99
2023-03-21T09:33:40.255Z,8.00
2023-03-21T09:34:40.466Z,8.00
2023-03-21T09:35:40.631Z,8.02
2023-03-21T09:36:40.180Z,8.02
2023-03-21T09:37:40.179Z,8.02
2023-03-21T09:38:40.157Z,8.02
2023-03-21T09:39:40.151Z,8.03
2023-03-21T09:40:40.187Z,8.04
2023-03-21T09:41:40.121Z,8.06
2023-03-21T09:42:40.140Z,8.06
2023-03-21T09:43:40.125Z,8.06
2023-03-21T09:44:40.091Z,8.07
2023-03-21T09:45:40.350Z,8.06
2023-03-21T09:46:40.212Z,8.07
2023-03-21T09:47:40.111Z,8.07
2023-03-21T09:48:50.623Z,8.09
2023-03-21T09:49:40.065Z,8.10
2023-03-21T09:50:40.024Z,8.12
2023-03-21T09:51:40.043Z,8.12
2023-03-21T09:52:40.001Z,8.12
2023-03-21T09:53:40.010Z,8.14
2023-03-21T09:54:40.020Z,8.14
2023-03-21T09:55:40.623Z,8.17
2023-03-21T09:56:39.966Z,8.18
2023-03-21T09:57:39.967Z,8.20
2023-03-21T09:58:39.962Z,8.21
2023-03-21T09:59:39.957Z,8.21
2023-03-21T10:00:39.956Z,8.25
2023-03-21T10:01:39.914Z,8.27
2023-03-21T10:02:39.905Z,8.25
2023-03-21T10:03:39.886Z,8.27
2023-03-21T10:04:39.964Z,8.27
2023-03-21T10:05:40.341Z,8.27
2023-03-21T10:06:39.849Z,8.31
2023-03-21T10:07:40.119Z,8.31
2023-03-21T10:08:39.837Z,8.31
2023-03-21T10:09:39.841Z,8.34
2023-03-21T10:10:40.270Z,8.34
2023-03-21T10:11:39.802Z,8.34
2023-03-21T10:12:39.786Z,8.32
2023-03-21T10:13:39.784Z,8.32
2023-03-21T10:14:39.787Z,8.32
2023-03-21T10:15:39.981Z,8.31
2023-03-21T10:16:39.846Z,8.29
2023-03-21T10:17:39.724Z,8.32
2023-03-21T10:18:39.743Z,8.31
2023-03-21T10:19:39.865Z,8.32
2023-03-21T10:20:39.688Z,8.32
2023-03-21T10:22:39.688Z,8.34
2023-03-21T10:23:39.693Z,8.32
2023-03-21T10:24:39.675Z,8.32
2023-03-21T10:25:40.046Z,8.32
2023-03-21T10:26:39.632Z,8.32
2023-03-21T10:27:39.620Z,8.31
2023-03-21T10:28:52.331Z,8.34
2023-03-21T10:29:39.776Z,8.34
2023-03-21T10:30:39.606Z,8.34
2023-03-21T10:31:39.597Z,8.32
2023-03-21T10:32:39.623Z,8.34
2023-03-21T10:33:39.563Z,8.32
2023-03-21T10:34:39.564Z,8.34
2023-03-21T10:35:40.156Z,8.34
2023-03-21T10:36:39.522Z,8.34
2023-03-21T10:37:39.505Z,8.36
2023-03-21T10:38:39.495Z,8.36
2023-03-21T10:39:39.498Z,8.36
2023-03-21T10:40:39.503Z,8.37
2023-03-21T10:41:39.457Z,8.36
2023-03-21T10:42:39.448Z,8.37
2023-03-21T10:43:39.448Z,8.36
2023-03-21T10:44:39.424Z,8.34
2023-03-21T10:45:39.725Z,8.34
2023-03-21T10:46:39.881Z,8.34
2023-03-21T10:47:39.726Z,8.36
2023-03-21T10:48:39.644Z,8.34
2023-03-21T10:50:39.438Z,8.36
2023-03-21T10:51:39.352Z,8.34
2023-03-21T10:52:39.372Z,8.34
2023-03-21T10:53:39.331Z,8.34
2023-03-21T10:54:39.310Z,8.34
2023-03-21T10:55:39.833Z,8.36
2023-03-21T10:56:39.311Z,8.36
2023-03-21T10:57:39.283Z,8.34
2023-03-21T10:58:39.292Z,8.34
2023-03-21T10:59:39.272Z,8.36
2023-03-21T11:00:39.262Z,8.36
2023-03-21T11:01:39.361Z,8.34
2023-03-21T11:02:39.309Z,8.32
2023-03-21T11:03:39.237Z,8.31
2023-03-21T11:04:39.210Z,8.32
2023-03-21T11:05:39.466Z,8.32
2023-03-21T11:06:39.201Z,8.32
2023-03-21T11:07:39.181Z,8.34
2023-03-21T11:08:39.185Z,8.34
2023-03-21T11:09:39.154Z,8.36
2023-03-21T11:10:39.148Z,8.36
2023-03-21T11:11:39.140Z,8.36
2023-03-21T11:12:39.135Z,8.37
2023-03-21T11:13:39.115Z,8.37
2023-03-21T11:14:39.143Z,8.37
2023-03-21T11:15:39.521Z,8.39
2023-03-21T11:16:40.517Z,8.40
2023-03-21T11:17:39.073Z,8.39
2023-03-21T11:18:39.071Z,8.42
2023-03-21T11:19:39.161Z,8.45
2023-03-21T11:20:39.038Z,8.43
2023-03-21T11:21:39.034Z,8.43
2023-03-21T11:22:39.044Z,8.45
2023-03-21T11:23:39.019Z,8.45
2023-03-21T11:24:38.989Z,8.45
2023-03-21T11:25:39.260Z,8.45
2023-03-21T11:26:38.986Z,8.43
2023-03-21T11:27:38.963Z,8.46
2023-03-21T11:28:38.983Z,8.47
2023-03-21T11:29:39.031Z,8.49
2023-03-21T11:30:38.995Z,8.50
2023-03-21T11:31:38.923Z,8.49
2023-03-21T11:32:38.966Z,8.47
2023-03-21T11:33:38.896Z,8.52
2023-03-21T11:34:38.943Z,8.52
2023-03-21T11:35:39.228Z,8.50
2023-03-21T11:36:38.882Z,8.52
2023-03-21T11:37:38.881Z,8.49
2023-03-21T11:38:38.844Z,8.50
2023-03-21T11:39:38.835Z,8.50
2023-03-21T11:40:38.825Z,8.49
2023-03-21T11:41:38.827Z,8.47
2023-03-21T11:42:38.800Z,8.46
2023-03-21T11:43:38.843Z,8.47
2023-03-21T11:44:38.786Z,8.49
2023-03-21T11:45:39.195Z,8.47
2023-03-21T11:46:38.853Z,8.46
2023-03-21T11:47:38.866Z,8.47
2023-03-21T11:48:38.728Z,8.47
2023-03-21T11:49:38.724Z,8.46
2023-03-21T11:50:38.708Z,8.47
2023-03-21T11:51:38.721Z,8.49
2023-03-21T11:52:38.705Z,8.47
2023-03-21T11:53:38.687Z,8.47
2023-03-21T11:54:38.668Z,8.46
2023-03-21T11:55:39.000Z,8.47
2023-03-21T11:56:38.665Z,8.47
2023-03-21T11:57:38.655Z,8.47
2023-03-21T11:58:38.713Z,8.49
2023-03-21T11:59:38.623Z,8.46
2023-03-21T12:00:38.614Z,8.47
2023-03-21T12:01:38.645Z,8.47
2023-03-21T12:02:38.645Z,8.49
2023-03-21T12:03:47.595Z,8.50
2023-03-21T12:04:38.626Z,8.49
2023-03-21T12:05:38.900Z,8.49
2023-03-21T12:06:38.650Z,8.49
2023-03-21T12:07:38.528Z,8.46
2023-03-21T12:08:38.533Z,8.46
2023-03-21T12:09:38.549Z,8.45
2023-03-21T12:10:38.519Z,8.45
2023-03-21T12:11:38.483Z,8.47
2023-03-21T12:12:39.690Z,8.47
2023-03-21T12:13:38.456Z,8.47
2023-03-21T12:14:38.456Z,8.46
2023-03-21T12:15:38.950Z,8.46
2023-03-21T12:16:38.523Z,8.46
2023-03-21T12:17:38.414Z,8.46
2023-03-21T12:18:38.405Z,8.46
2023-03-21T12:19:38.390Z,8.46
2023-03-21T12:20:38.426Z,8.46
2023-03-21T12:21:38.397Z,8.46
2023-03-21T12:22:38.384Z,8.47
2023-03-21T12:23:38.471Z,8.49
2023-03-21T12:24:38.342Z,8.49
2023-03-21T12:25:38.693Z,8.47
2023-03-21T12:26:38.320Z,8.47
2023-03-21T12:27:38.978Z,8.49
2023-03-21T12:28:38.288Z,8.47
2023-03-21T12:29:38.286Z,8.49
2023-03-21T12:30:38.277Z,8.49
2023-03-21T12:31:38.355Z,8.47
2023-03-21T12:32:38.280Z,8.46
2023-03-21T12:33:38.244Z,8.46
2023-03-21T12:34:38.228Z,8.49
2023-03-21T12:35:38.590Z,8.49
2023-03-21T12:36:38.234Z,8.50
2023-03-21T12:37:38.193Z,8.50
2023-03-21T12:38:38.227Z,8.50
2023-03-21T12:39:38.179Z,8.49
2023-03-21T12:40:38.159Z,8.52
2023-03-21T12:41:38.171Z,8.50
2023-03-21T12:42:38.134Z,8.49
2023-03-21T12:43:38.155Z,8.50
2023-03-21T12:44:38.133Z,8.50
2023-03-21T12:45:46.634Z,8.50
2023-03-21T12:46:38.177Z,8.49
2023-03-21T12:47:38.092Z,8.50
2023-03-21T12:48:38.071Z,8.49
2023-03-21T12:49:38.074Z,8.50
2023-03-21T12:50:38.062Z,8.52
2023-03-21T12:51:38.040Z,8.50
2023-03-21T12:52:38.027Z,8.54
2023-03-21T12:53:38.051Z,8.55
2023-03-21T12:54:38.007Z,8.55
2023-03-21T12:55:38.329Z,8.55
2023-03-21T12:56:38.029Z,8.55
2023-03-21T12:57:40.167Z,8.55
2023-03-21T12:58:37.972Z,8.58
2023-03-21T12:59:37.959Z,8.55
2023-03-21T13:00:38.389Z,8.57
2023-03-21T13:01:37.972Z,8.57
2023-03-21T13:02:37.937Z,8.58
2023-03-21T13:03:40.640Z,8.58
2023-03-21T13:04:37.978Z,8.58
2023-03-21T13:05:37.905Z,8.60
2023-03-21T13:06:37.881Z,8.60
2023-03-21T13:07:37.866Z,8.61
2023-03-21T13:08:37.856Z,8.60
2023-03-21T13:09:38.509Z,8.58
2023-03-21T13:10:38.087Z,8.58
2023-03-21T13:11:37.927Z,8.58
2023-03-21T13:12:37.802Z,8.58
2023-03-21T13:13:37.799Z,8.57
2023-03-21T13:14:37.788Z,8.58
2023-03-21T13:15:37.781Z,8.60
2023-03-21T13:16:37.809Z,8.60
2023-03-21T13:17:37.773Z,8.60
2023-03-21T13:18:37.738Z,8.63
2023-03-21T13:19:37.724Z,8.61
2023-03-21T13:20:38.035Z,8.63